Time;durP1;ratioP1;P1;durP2;ratioP2;P2;SDS_P1;SDS_P2;PMS_P1;PMS_P2;Temp;Humidity;BMP_temperature;BMP_pressure;BME280_temperature;BME280_humidity;BME280_pressure;Samples;Min_cycle;Max_cycle;Signal;HPM_P1;HPM_P2
2022/05/03 00:00:28;;;;;;;14.50;13.30;;;;;;;;;;5071466;28;20433;-76
2022/05/03 00:02:56;;;;;;;15.77;14.37;;;;;;;;;;5071817;28;20472;-76
2022/05/03 00:05:29;;;;;;;15.27;14.07;;;;;;;;;;5071647;28;20444;-77
2022/05/03 00:08:02;;;;;;;14.57;13.37;;;;;;;;;;5071893;28;20546;-76
2022/05/03 00:10:32;;;;;;;14.90;13.60;;;;;;;;;;5069982;28;20460;-76
2022/05/03 00:13:03;;;;;;;15.27;13.70;;;;;;;;;;5073611;28;20445;-76
2022/05/03 00:15:32;;;;;;;15.70;14.23;;;;;;;;;;5073129;28;20896;-76
2022/05/03 00:17:59;;;;;;;14.20;13.00;;;;;;;;;;5073138;28;20998;-76
2022/05/03 00:20:26;;;;;;;14.97;13.77;;;;;;;;;;5073590;28;20440;-77
2022/05/03 00:22:54;;;;;;;15.40;14.00;;;;;;;;;;5073117;28;20444;-76
2022/05/03 00:25:23;;;;;;;13.73;12.70;;;;;;;;;;5072984;28;20441;-78
2022/05/03 00:27:51;;;;;;;13.83;12.73;;;;;;;;;;5072987;28;20514;-76
2022/05/03 00:30:18;;;;;;;14.40;13.20;;;;;;;;;;5073277;28;20456;-76
2022/05/03 00:32:45;;;;;;;13.87;12.77;;;;;;;;;;5072908;28;20511;-76
2022/05/03 00:35:12;;;;;;;14.60;13.50;;;;;;;;;;5073023;28;20441;-76
2022/05/03 00:37:39;;;;;;;14.60;13.37;;;;;;;;;;5072765;28;20460;-76
2022/05/03 00:40:07;;;;;;;15.00;13.80;;;;;;;;;;5073371;28;21001;-77
2022/05/03 00:42:41;;;;;;;15.70;14.30;;;;;;;;;;5072801;28;20562;-78
2022/05/03 00:45:12;;;;;;;15.00;13.87;;;;;;;;;;5073328;28;20439;-77
2022/05/03 00:47:48;;;;;;;15.20;14.00;;;;;;;;;;5072328;28;21181;-76
2022/05/03 00:50:22;;;;;;;15.43;14.17;;;;;;;;;;5072753;28;20452;-77
2022/05/03 00:52:51;;;;;;;14.50;13.43;;;;;;;;;;5072138;28;20494;-76
2022/05/03 00:55:29;;;;;;;14.03;12.93;;;;;;;;;;5072167;28;20936;-76
2022/05/03 00:58:05;;;;;;;15.40;14.20;;;;;;;;;;5071937;28;20820;-78
2022/05/03 01:00:34;;;;;;;14.87;13.57;;;;;;;;;;5072724;28;20432;-77
2022/05/03 01:03:10;;;;;;;15.63;14.33;;;;;;;;;;5072381;28;20445;-77
2022/05/03 01:05:45;;;;;;;15.93;14.57;;;;;;;;;;5072526;28;20440;-76
2022/05/03 01:08:14;;;;;;;15.97;14.67;;;;;;;;;;5072465;28;20531;-76
2022/05/03 01:10:47;;;;;;;15.50;14.23;;;;;;;;;;5072390;28;20441;-76
2022/05/03 01:13:21;;;;;;;15.80;14.60;;;;;;;;;;5084701;28;20466;-77
2022/05/03 01:15:50;;;;;;;15.40;14.20;;;;;;;;;;5089912;28;20435;-75
2022/05/03 01:18:21;;;;;;;15.50;14.20;;;;;;;;;;5092392;28;20439;-76
2022/05/03 01:20:57;;;;;;;15.60;14.33;;;;;;;;;;5092582;28;20452;-76
2022/05/03 01:23:34;;;;;;;15.03;13.83;;;;;;;;;;5092065;28;20451;-78
2022/05/03 01:26:22;;;;;;;17.03;15.63;;;;;;;;;;5092452;28;20431;-76
2022/05/03 01:28:56;;;;;;;16.07;14.63;;;;;;;;;;5092247;28;20428;-76
2022/05/03 01:31:24;;;;;;;14.97;13.77;;;;;;;;;;5091928;28;20504;-76
2022/05/03 01:33:51;;;;;;;15.43;14.23;;;;;;;;;;5092180;28;20499;-76
2022/05/03 01:36:24;;;;;;;15.40;14.20;;;;;;;;;;5091951;28;20476;-76
2022/05/03 01:39:02;;;;;;;16.20;14.80;;;;;;;;;;5092333;28;20439;-76
2022/05/03 01:41:34;;;;;;;16.80;15.30;;;;;;;;;;5092081;28;20431;-77
2022/05/03 01:44:07;;;;;;;16.00;14.70;;;;;;;;;;5091813;28;20428;-76
2022/05/03 01:46:36;;;;;;;15.10;13.80;;;;;;;;;;5092063;28;20495;-76
2022/05/03 01:51:58;;;;;;;16.93;15.53;;;;;;;;;;5091858;28;20540;-76
2022/05/03 01:54:41;;;;;;;16.00;14.80;;;;;;;;;;5091673;28;20467;-76
2022/05/03 01:57:11;;;;;;;16.30;15.00;;;;;;;;;;5091911;28;20876;-77
2022/05/03 01:59:46;;;;;;;16.20;14.90;;;;;;;;;;5091813;28;20444;-76
2022/05/03 02:02:19;;;;;;;15.30;14.13;;;;;;;;;;5092376;28;20519;-76
2022/05/03 02:04:52;;;;;;;16.00;14.80;;;;;;;;;;5091965;28;20428;-75
2022/05/03 02:07:24;;;;;;;15.20;14.00;;;;;;;;;;5092047;28;20819;-78
2022/05/03 02:10:01;;;;;;;15.03;13.90;;;;;;;;;;5094767;28;21049;-76
2022/05/03 02:12:28;;;;;;;14.70;13.60;;;;;;;;;;5095068;28;20479;-76
2022/05/03 02:14:56;;;;;;;17.67;16.07;;;;;;;;;;5094282;28;20497;-76
2022/05/03 02:17:38;;;;;;;15.70;14.50;;;;;;;;;;5091734;28;20456;-77
2022/05/03 02:20:14;;;;;;;16.40;14.80;;;;;;;;;;5091706;28;20489;-76
2022/05/03 02:23:12;;;;;;;17.63;16.03;;;;;;;;;;5091175;28;20446;-76
2022/05/03 02:25:43;;;;;;;17.27;15.47;;;;;;;;;;5028612;28;20450;-77
2022/05/03 02:28:24;;;;;;;17.13;15.73;;;;;;;;;;5078694;28;20527;-77
2022/05/03 02:30:53;;;;;;;16.80;15.40;;;;;;;;;;5091239;28;20451;-75
2022/05/03 02:33:21;;;;;;;17.17;15.53;;;;;;;;;;5090398;28;20529;-76
2022/05/03 02:35:50;;;;;;;15.60;14.40;;;;;;;;;;5091244;28;20467;-76
2022/05/03 02:38:20;;;;;;;16.63;15.23;;;;;;;;;;5091095;28;20835;-76
2022/05/03 02:40:48;;;;;;;17.20;15.70;;;;;;;;;;5092072;28;20456;-76
2022/05/03 02:43:17;;;;;;;17.63;16.00;;;;;;;;;;5091561;28;20801;-75
2022/05/03 02:45:49;;;;;;;17.97;16.57;;;;;;;;;;5087481;28;20448;-76
2022/05/03 02:48:18;;;;;;;18.53;17.00;;;;;;;;;;5083599;28;20671;-76
2022/05/03 02:50:46;;;;;;;18.67;17.03;;;;;;;;;;5091411;28;20884;-76
2022/05/03 02:53:18;;;;;;;18.37;16.87;;;;;;;;;;5091183;28;20471;-76
2022/05/03 02:55:50;;;;;;;18.87;17.23;;;;;;;;;;5091453;28;20459;-75
2022/05/03 02:58:25;;;;;;;18.13;16.50;;;;;;;;;;5091961;28;20452;-76
2022/05/03 03:04:00;;;;;;;17.67;16.30;;;;;;;;;;5079768;28;20417;-75
2022/05/03 03:06:32;;;;;;;16.53;15.23;;;;;;;;;;5082061;28;20963;-76
2022/05/03 03:08:59;;;;;;;16.33;15.03;;;;;;;;;;5090837;28;20721;-77
2022/05/03 03:11:31;;;;;;;17.47;15.97;;;;;;;;;;5090682;28;20459;-74
2022/05/03 03:14:05;;;;;;;18.43;16.90;;;;;;;;;;5090285;28;20477;-75
2022/05/03 03:16:32;;;;;;;17.13;15.73;;;;;;;;;;5090752;28;20468;-75
2022/05/03 03:19:00;;;;;;;18.73;17.13;;;;;;;;;;5090685;28;20452;-76
2022/05/03 03:21:32;;;;;;;18.73;17.03;;;;;;;;;;5090681;28;20451;-75
2022/05/03 03:24:00;;;;;;;18.87;17.27;;;;;;;;;;5086524;28;20907;-76
2022/05/03 03:26:30;;;;;;;19.70;18.10;;;;;;;;;;5090332;28;20480;-74
2022/05/03 03:29:00;;;;;;;18.10;16.57;;;;;;;;;;5090272;28;20453;-76
2022/05/03 03:31:27;;;;;;;19.30;17.70;;;;;;;;;;5090162;28;20774;-76
2022/05/03 03:33:54;;;;;;;18.27;16.80;;;;;;;;;;5089901;28;20480;-76
2022/05/03 03:36:22;;;;;;;18.63;17.03;;;;;;;;;;5090525;28;20459;-77
2022/05/03 03:38:51;;;;;;;18.33;16.90;;;;;;;;;;5090624;28;20451;-77
2022/05/03 03:41:18;;;;;;;20.13;18.43;;;;;;;;;;5090934;28;20428;-76
2022/05/03 03:43:45;;;;;;;19.63;17.93;;;;;;;;;;5091325;28;20440;-75
2022/05/03 03:46:12;;;;;;;19.80;18.10;;;;;;;;;;5092308;28;20997;-76
2022/05/03 03:48:40;;;;;;;19.97;18.10;;;;;;;;;;5095485;28;20451;-75
2022/05/03 03:51:07;;;;;;;20.80;18.80;;;;;;;;;;5095671;28;20976;-75
2022/05/03 03:53:35;;;;;;;20.83;18.97;;;;;;;;;;5094591;28;20480;-75
2022/05/03 03:56:03;;;;;;;21.40;19.20;;;;;;;;;;5095026;28;20477;-74
2022/05/03 03:58:31;;;;;;;20.10;18.20;;;;;;;;;;5095201;28;20444;-75
2022/05/03 04:00:58;;;;;;;21.53;19.60;;;;;;;;;;5095097;28;20447;-75
2022/05/03 04:03:26;;;;;;;21.33;19.40;;;;;;;;;;5094671;28;20800;-75
2022/05/03 04:05:53;;;;;;;21.90;19.67;;;;;;;;;;5095048;28;20451;-76
2022/05/03 04:08:20;;;;;;;21.00;19.03;;;;;;;;;;5095038;28;20449;-75
2022/05/03 04:10:49;;;;;;;19.63;17.93;;;;;;;;;;5094477;28;20921;-75
2022/05/03 04:13:17;;;;;;;20.83;18.73;;;;;;;;;;5094350;28;20471;-75
2022/05/03 04:15:44;;;;;;;21.20;19.33;;;;;;;;;;5086326;28;20446;-75
2022/05/03 04:18:11;;;;;;;22.87;20.77;;;;;;;;;;5094459;28;20451;-75
2022/05/03 04:20:39;;;;;;;21.77;19.90;;;;;;;;;;5094376;28;20976;-76
2022/05/03 04:23:06;;;;;;;20.20;18.33;;;;;;;;;;5093683;28;20439;-74
2022/05/03 04:25:33;;;;;;;22.33;20.20;;;;;;;;;;5094009;28;20912;-75
2022/05/03 04:28:00;;;;;;;21.63;19.63;;;;;;;;;;5094359;28;20550;-74
2022/05/03 04:30:28;;;;;;;23.63;21.20;;;;;;;;;;5093877;28;20458;-76
2022/05/03 04:32:55;;;;;;;25.80;23.20;;;;;;;;;;5092965;28;20474;-75
2022/05/03 04:35:22;;;;;;;26.33;23.83;;;;;;;;;;5094060;28;20451;-75
2022/05/03 04:37:49;;;;;;;22.10;20.07;;;;;;;;;;5093578;28;20464;-76
2022/05/03 04:40:16;;;;;;;22.10;20.03;;;;;;;;;;5094188;28;20450;-75
2022/05/03 04:42:43;;;;;;;22.47;20.40;;;;;;;;;;5093844;28;20448;-75
2022/05/03 04:45:11;;;;;;;20.93;19.00;;;;;;;;;;5093678;28;20477;-75
2022/05/03 04:47:39;;;;;;;21.93;19.83;;;;;;;;;;5093670;28;20455;-75
2022/05/03 04:50:06;;;;;;;22.50;20.40;;;;;;;;;;5093552;28;20448;-76
2022/05/03 04:52:33;;;;;;;21.00;19.00;;;;;;;;;;5093130;28;20476;-76
2022/05/03 04:55:00;;;;;;;22.20;20.00;;;;;;;;;;5093843;28;20865;-75
2022/05/03 04:57:27;;;;;;;22.83;20.90;;;;;;;;;;5092658;28;20673;-76
2022/05/03 04:59:54;;;;;;;21.10;19.17;;;;;;;;;;5093311;28;20439;-75
2022/05/03 05:02:21;;;;;;;23.07;20.70;;;;;;;;;;5093684;28;20439;-75
2022/05/03 05:04:50;;;;;;;23.73;21.33;;;;;;;;;;5093016;28;20931;-75
2022/05/03 05:07:17;;;;;;;24.83;22.33;;;;;;;;;;5093094;28;20517;-75
2022/05/03 05:12:25;;;;;;;24.67;22.33;;;;;;;;;;5092499;28;21066;-75
2022/05/03 05:14:52;;;;;;;24.53;22.13;;;;;;;;;;5093287;28;20450;-76
2022/05/03 05:17:19;;;;;;;24.77;22.17;;;;;;;;;;5093085;28;20513;-74
2022/05/03 05:19:46;;;;;;;25.00;22.80;;;;;;;;;;5093511;28;20456;-75
2022/05/03 05:22:15;;;;;;;25.57;23.37;;;;;;;;;;5099910;28;20451;-76
2022/05/03 05:24:42;;;;;;;25.40;22.90;;;;;;;;;;5095253;28;20436;-76
2022/05/03 05:27:09;;;;;;;25.30;22.90;;;;;;;;;;5094050;28;20982;-76
2022/05/03 05:29:36;;;;;;;26.00;23.57;;;;;;;;;;5092372;28;20668;-77
2022/05/03 05:32:03;;;;;;;27.10;24.23;;;;;;;;;;5092488;28;20440;-75
2022/05/03 05:34:30;;;;;;;26.50;24.00;;;;;;;;;;5092564;28;20471;-76
2022/05/03 05:36:57;;;;;;;27.57;25.07;;;;;;;;;;5092559;28;20484;-76
2022/05/03 05:39:26;;;;;;;27.70;25.03;;;;;;;;;;5092626;28;20476;-75
2022/05/03 05:41:55;;;;;;;26.70;24.07;;;;;;;;;;5092582;28;20460;-76
2022/05/03 05:44:22;;;;;;;26.07;23.67;;;;;;;;;;5092438;28;20454;-75
2022/05/03 05:46:49;;;;;;;25.67;23.33;;;;;;;;;;5092477;28;20474;-75
2022/05/03 05:49:16;;;;;;;25.83;23.33;;;;;;;;;;5092741;28;20440;-75
2022/05/03 05:51:45;;;;;;;25.13;22.73;;;;;;;;;;5092469;28;20454;-76
2022/05/03 05:54:11;;;;;;;25.37;22.83;;;;;;;;;;5092107;28;20860;-77
2022/05/03 05:56:40;;;;;;;25.13;22.83;;;;;;;;;;5092492;28;20861;-76
2022/05/03 05:59:07;;;;;;;24.23;22.03;;;;;;;;;;5092633;28;20479;-75
2022/05/03 06:01:37;;;;;;;23.67;21.63;;;;;;;;;;5092597;28;20439;-75
2022/05/03 06:04:05;;;;;;;27.40;24.80;;;;;;;;;;5092530;28;20471;-76
2022/05/03 06:06:32;;;;;;;24.90;22.50;;;;;;;;;;5092203;28;20822;-75
2022/05/03 06:09:00;;;;;;;24.50;22.33;;;;;;;;;;5091783;28;20825;-75
2022/05/03 06:11:27;;;;;;;24.60;22.50;;;;;;;;;;5092542;28;20454;-76
2022/05/03 06:13:55;;;;;;;24.33;22.13;;;;;;;;;;5091904;28;20848;-75
2022/05/03 06:16:22;;;;;;;25.60;23.20;;;;;;;;;;5092312;28;20986;-75
2022/05/03 06:18:49;;;;;;;26.50;23.90;;;;;;;;;;5092656;28;20454;-76
2022/05/03 06:21:16;;;;;;;27.60;25.10;;;;;;;;;;5092380;28;20447;-75
2022/05/03 06:23:43;;;;;;;25.63;23.20;;;;;;;;;;5091757;28;20448;-75
2022/05/03 06:26:10;;;;;;;24.83;22.63;;;;;;;;;;5091484;28;20815;-76
2022/05/03 06:28:39;;;;;;;24.53;22.43;;;;;;;;;;5092008;28;20503;-75
2022/05/03 06:31:08;;;;;;;22.93;20.73;;;;;;;;;;5092001;28;20439;-75
2022/05/03 06:33:35;;;;;;;24.13;22.10;;;;;;;;;;5091652;28;20479;-75
2022/05/03 06:36:02;;;;;;;25.20;22.67;;;;;;;;;;5091625;28;20462;-75
2022/05/03 06:38:29;;;;;;;24.10;22.00;;;;;;;;;;5091712;28;20939;-75
2022/05/03 06:41:00;;;;;;;25.10;22.80;;;;;;;;;;5091671;28;20448;-76
2022/05/03 06:43:27;;;;;;;25.40;23.20;;;;;;;;;;5092786;28;20432;-76
2022/05/03 06:45:56;;;;;;;24.47;22.07;;;;;;;;;;5094096;28;20485;-75
2022/05/03 06:48:24;;;;;;;23.20;21.20;;;;;;;;;;5094483;28;20447;-76
2022/05/03 06:50:52;;;;;;;23.70;21.70;;;;;;;;;;5094093;28;20442;-74
2022/05/03 06:53:19;;;;;;;22.97;20.97;;;;;;;;;;5093049;28;20476;-75
2022/05/03 06:55:46;;;;;;;24.23;21.63;;;;;;;;;;5091606;28;20454;-76
2022/05/03 06:58:14;;;;;;;23.00;20.90;;;;;;;;;;5091961;28;20447;-76
2022/05/03 07:00:41;;;;;;;21.80;19.90;;;;;;;;;;5091575;28;20448;-77
2022/05/03 07:03:08;;;;;;;22.13;20.27;;;;;;;;;;5091499;28;20436;-75
2022/05/03 07:05:37;;;;;;;23.47;21.30;;;;;;;;;;5095895;28;20439;-77
2022/05/03 07:08:04;;;;;;;22.20;20.30;;;;;;;;;;5092615;28;20460;-76
2022/05/03 07:10:31;;;;;;;21.20;19.40;;;;;;;;;;5091692;28;20463;-77
2022/05/03 07:12:58;;;;;;;23.77;21.40;;;;;;;;;;5091778;28;20451;-74
2022/05/03 07:15:26;;;;;;;23.03;21.13;;;;;;;;;;5091633;28;20927;-76
2022/05/03 07:23:26;;;;;;;20.80;19.20;;;;;;;;;;5095212;28;20430;-75
2022/05/03 07:25:53;;;;;;;21.30;19.17;;;;;;;;;;5095293;28;20471;-76
2022/05/03 07:28:21;;;;;;;20.43;18.73;;;;;;;;;;5096047;28;20443;-75
2022/05/03 07:30:48;;;;;;;19.20;17.40;;;;;;;;;;5095110;28;20455;-75
2022/05/03 07:33:15;;;;;;;19.40;17.70;;;;;;;;;;5094965;28;20826;-76
2022/05/03 07:35:43;;;;;;;17.67;16.20;;;;;;;;;;5095243;28;20443;-76
2022/05/03 07:38:10;;;;;;;18.60;17.00;;;;;;;;;;5095161;28;20501;-76
2022/05/03 07:40:38;;;;;;;18.00;16.30;;;;;;;;;;5095316;28;20865;-77
2022/05/03 07:43:05;;;;;;;16.67;15.27;;;;;;;;;;5094584;28;20906;-76
2022/05/03 07:45:32;;;;;;;15.33;13.93;;;;;;;;;;5094866;28;20525;-76
2022/05/03 07:47:59;;;;;;;14.93;13.60;;;;;;;;;;5095096;28;20468;-76
2022/05/03 07:50:26;;;;;;;16.07;14.67;;;;;;;;;;5095051;28;20450;-76
2022/05/03 07:52:55;;;;;;;15.90;14.70;;;;;;;;;;5094600;28;20466;-75
2022/05/03 07:55:22;;;;;;;15.37;13.93;;;;;;;;;;5094951;28;20484;-76
2022/05/03 07:57:49;;;;;;;15.67;14.47;;;;;;;;;;5094707;28;20581;-76
2022/05/03 08:00:16;;;;;;;16.03;14.63;;;;;;;;;;5094530;28;20901;-76
2022/05/03 08:02:43;;;;;;;14.90;13.60;;;;;;;;;;5094980;28;20448;-76
2022/05/03 08:05:11;;;;;;;16.43;15.10;;;;;;;;;;5095118;28;20978;-76
2022/05/03 08:07:38;;;;;;;14.50;13.20;;;;;;;;;;5095075;28;20854;-75
2022/05/03 08:10:07;;;;;;;14.20;13.10;;;;;;;;;;5095191;28;20456;-75
2022/05/03 08:12:34;;;;;;;14.90;13.70;;;;;;;;;;5094420;28;20946;-74
2022/05/03 08:15:01;;;;;;;14.37;13.20;;;;;;;;;;5094955;28;20475;-75
2022/05/03 08:17:28;;;;;;;12.90;11.80;;;;;;;;;;5094974;28;20532;-76
2022/05/03 08:19:55;;;;;;;11.50;10.43;;;;;;;;;;5094938;28;20493;-75
2022/05/03 08:22:22;;;;;;;12.63;11.73;;;;;;;;;;5100543;28;20447;-75
2022/05/03 08:24:49;;;;;;;10.90;10.00;;;;;;;;;;5098865;28;20439;-75
2022/05/03 08:27:18;;;;;;;12.10;11.27;;;;;;;;;;5100350;28;20447;-75
2022/05/03 08:29:45;;;;;;;12.47;11.47;;;;;;;;;;5095340;28;20439;-75
2022/05/03 08:32:12;;;;;;;11.97;11.07;;;;;;;;;;5093807;28;20451;-75
2022/05/03 08:34:39;;;;;;;11.37;10.37;;;;;;;;;;5093927;28;21025;-75
2022/05/03 08:42:37;;;;;;;10.60;9.90;;;;;;;;;;5093147;28;20416;-76
2022/05/03 08:45:05;;;;;;;10.50;9.80;;;;;;;;;;5094052;28;20684;-77
2022/05/03 08:47:33;;;;;;;11.38;10.38;;;;;;;;;;5093557;28;20799;-76
2022/05/03 08:50:03;;;;;;;10.93;10.13;;;;;;;;;;5093746;28;20194;-75
2022/05/03 08:52:33;;;;;;;10.13;9.33;;;;;;;;;;5093793;28;20462;-75
2022/05/03 08:55:00;;;;;;;9.80;9.00;;;;;;;;;;5093936;28;20506;-75
2022/05/03 08:57:27;;;;;;;9.60;8.80;;;;;;;;;;5093730;28;20508;-75
2022/05/03 08:59:56;;;;;;;10.03;9.33;;;;;;;;;;5094212;28;20455;-75
2022/05/03 09:02:23;;;;;;;10.30;9.40;;;;;;;;;;5093417;28;20978;-76
2022/05/03 09:04:50;;;;;;;10.60;9.70;;;;;;;;;;5093551;28;20435;-75
2022/05/03 09:07:19;;;;;;;10.77;9.87;;;;;;;;;;5093461;28;20460;-75
2022/05/03 09:09:47;;;;;;;9.37;8.30;;;;;;;;;;5093420;28;20483;-76
2022/05/03 09:12:24;;;;;;;10.07;9.27;;;;;;;;;;5093420;28;20846;-76
2022/05/03 09:14:51;;;;;;;9.50;8.60;;;;;;;;;;5092824;28;20486;-77
2022/05/03 09:17:34;;;;;;;8.63;8.03;;;;;;;;;;5093727;28;20543;-76
2022/05/03 09:23:46;;;;;;;9.13;8.43;;;;;;;;;;5093241;28;20444;-75
2022/05/03 09:25:36;;;;;;;7.53;6.82;;;;;;;;;;5092154;28;20749;-76
2022/05/03 09:28:06;;;;;;;7.10;6.70;;;;;;;;;;5093276;28;20569;-78
2022/05/03 09:30:33;;;;;;;7.50;6.90;;;;;;;;;;5093372;28;20855;-76
2022/05/03 09:33:02;;;;;;;7.50;6.80;;;;;;;;;;5092573;28;20781;-76
2022/05/03 09:35:33;;;;;;;7.20;6.60;;;;;;;;;;5092829;28;20479;-76
2022/05/03 09:38:03;;;;;;;6.57;5.97;;;;;;;;;;5092686;28;20834;-76
2022/05/03 09:40:30;;;;;;;6.90;6.40;;;;;;;;;;5093046;28;20823;-77
2022/05/03 09:42:57;;;;;;;5.73;5.33;;;;;;;;;;5093163;28;20523;-76
2022/05/03 09:45:25;;;;;;;6.07;5.67;;;;;;;;;;5092978;28;20671;-75
2022/05/03 09:47:53;;;;;;;6.03;5.53;;;;;;;;;;5092652;28;20466;-75
2022/05/03 09:50:40;;;;;;;6.10;5.70;;;;;;;;;;5092033;28;20445;-74
2022/05/03 09:53:08;;;;;;;5.90;5.40;;;;;;;;;;5092647;28;20200;-75
2022/05/03 09:55:37;;;;;;;5.75;5.25;;;;;;;;;;5091380;28;20480;-75
2022/05/03 09:58:05;;;;;;;5.30;5.00;;;;;;;;;;5092147;28;20716;-75
2022/05/03 10:00:33;;;;;;;5.50;5.10;;;;;;;;;;5092331;28;20435;-74
2022/05/03 10:03:00;;;;;;;4.97;4.57;;;;;;;;;;5092051;28;20444;-75
2022/05/03 10:05:28;;;;;;;6.50;5.90;;;;;;;;;;5092025;28;20935;-76
2022/05/03 10:07:56;;;;;;;5.90;5.50;;;;;;;;;;5091986;28;20464;-74
2022/05/03 10:10:24;;;;;;;5.70;5.30;;;;;;;;;;5091931;28;20455;-75
2022/05/03 10:12:53;;;;;;;5.10;4.70;;;;;;;;;;5092146;28;20443;-75
2022/05/03 10:20:56;;;;;;;6.57;6.07;;;;;;;;;;5092364;28;20523;-75
2022/05/03 10:23:28;;;;;;;6.10;5.70;;;;;;;;;;5092225;28;20445;-74
2022/05/03 10:25:55;;;;;;;5.50;5.20;;;;;;;;;;5092155;28;20534;-75
2022/05/03 10:28:23;;;;;;;6.20;5.70;;;;;;;;;;5092241;28;21110;-74
2022/05/03 10:31:08;;;;;;;6.23;5.73;;;;;;;;;;5092113;28;20444;-74
2022/05/03 10:33:39;;;;;;;6.40;6.00;;;;;;;;;;5091827;28;20439;-75
2022/05/03 10:36:21;;;;;;;6.20;5.80;;;;;;;;;;5091943;28;20471;-76
2022/05/03 10:38:49;;;;;;;6.30;5.90;;;;;;;;;;5090720;28;20545;-75
2022/05/03 10:41:24;;;;;;;5.17;4.87;;;;;;;;;;5091945;28;20568;-75
2022/05/03 10:43:51;;;;;;;4.93;4.63;;;;;;;;;;5092030;28;20479;-75
2022/05/03 10:46:21;;;;;;;5.70;5.30;;;;;;;;;;5091758;28;20459;-74
2022/05/03 10:49:03;;;;;;;5.67;5.20;;;;;;;;;;5092193;28;20439;-76
2022/05/03 10:51:30;;;;;;;5.70;5.20;;;;;;;;;;5092231;28;20443;-75
2022/05/03 10:54:01;;;;;;;6.03;5.53;;;;;;;;;;5091748;28;20488;-74
2022/05/03 10:56:28;;;;;;;4.93;4.53;;;;;;;;;;5091239;28;20468;-75
2022/05/03 10:59:06;;;;;;;5.03;4.73;;;;;;;;;;5092236;28;20810;-75
2022/05/03 11:01:33;;;;;;;5.27;4.87;;;;;;;;;;5091416;28;20637;-74
2022/05/03 11:04:13;;;;;;;4.90;4.60;;;;;;;;;;5091457;28;20451;-74
2022/05/03 11:06:41;;;;;;;5.00;4.60;;;;;;;;;;5091584;28;20467;-75
2022/05/03 11:09:10;;;;;;;5.43;4.93;;;;;;;;;;5091283;28;20445;-75
2022/05/03 11:11:56;;;;;;;5.40;5.00;;;;;;;;;;5091312;28;20439;-75
2022/05/03 11:14:42;;;;;;;6.10;5.70;;;;;;;;;;5091466;28;20479;-75
2022/05/03 11:17:10;;;;;;;5.57;5.20;;;;;;;;;;5091779;28;20459;-75
2022/05/03 11:19:38;;;;;;;6.33;5.83;;;;;;;;;;5091273;28;20444;-75
2022/05/03 11:22:10;;;;;;;5.37;4.97;;;;;;;;;;5091266;28;20455;-75
2022/05/03 11:24:42;;;;;;;5.30;4.90;;;;;;;;;;5091338;28;20423;-75
2022/05/03 11:27:10;;;;;;;6.33;5.93;;;;;;;;;;5091089;28;20475;-75
2022/05/03 11:29:38;;;;;;;6.33;5.73;;;;;;;;;;5091132;28;20463;-75
2022/05/03 11:32:06;;;;;;;6.17;5.67;;;;;;;;;;5090938;28;20539;-75
2022/05/03 11:34:33;;;;;;;6.03;5.53;;;;;;;;;;5090579;28;20554;-76
2022/05/03 11:37:01;;;;;;;6.70;6.20;;;;;;;;;;5091155;28;20468;-76
2022/05/03 11:39:29;;;;;;;5.10;4.80;;;;;;;;;;5091034;28;20440;-75
2022/05/03 11:41:57;;;;;;;5.70;5.30;;;;;;;;;;5091201;28;20447;-76
2022/05/03 11:44:27;;;;;;;5.27;4.97;;;;;;;;;;5090957;28;20535;-76
2022/05/03 11:46:54;;;;;;;6.37;6.00;;;;;;;;;;5091257;28;20502;-74
2022/05/03 11:49:22;;;;;;;5.70;5.30;;;;;;;;;;5092317;28;20921;-74
2022/05/03 11:57:23;;;;;;;5.10;4.60;;;;;;;;;;5090764;28;20486;-76
2022/05/03 11:59:50;;;;;;;5.83;5.33;;;;;;;;;;5090951;28;20454;-76
2022/05/03 12:02:18;;;;;;;5.37;4.80;;;;;;;;;;5090806;28;20448;-75
2022/05/03 12:05:02;;;;;;;5.30;4.90;;;;;;;;;;5090787;28;20467;-76
2022/05/03 12:07:29;;;;;;;4.77;4.37;;;;;;;;;;5092400;28;21007;-75
2022/05/03 12:09:56;;;;;;;7.27;6.60;;;;;;;;;;5095433;28;20443;-76
2022/05/03 12:12:43;;;;;;;6.13;5.70;;;;;;;;;;5095651;28;20485;-75
2022/05/03 12:15:14;;;;;;;6.40;5.90;;;;;;;;;;5097601;28;20701;-76
2022/05/03 12:17:55;;;;;;;6.03;5.53;;;;;;;;;;5097884;28;20474;-75
2022/05/03 12:20:22;;;;;;;6.00;5.60;;;;;;;;;;5097049;28;20523;-76
2022/05/03 12:23:04;;;;;;;6.07;5.53;;;;;;;;;;5098465;28;20462;-76
2022/05/03 12:25:31;;;;;;;6.17;5.60;;;;;;;;;;5096317;28;20946;-75
2022/05/03 12:28:04;;;;;;;6.80;6.10;;;;;;;;;;5096417;28;20828;-74
2022/05/03 12:30:32;;;;;;;5.90;5.40;;;;;;;;;;5096002;28;20443;-74
2022/05/03 12:33:02;;;;;;;6.00;5.50;;;;;;;;;;5095771;28;20467;-77
2022/05/03 12:35:32;;;;;;;6.10;5.60;;;;;;;;;;5096615;28;20518;-76
2022/05/03 12:38:00;;;;;;;7.97;5.70;;;;;;;;;;5095730;28;20463;-75
2022/05/03 12:40:27;;;;;;;6.40;5.90;;;;;;;;;;5096220;28;20447;-75
2022/05/03 12:42:54;;;;;;;6.07;5.67;;;;;;;;;;5097720;28;20945;-73
2022/05/03 12:45:33;;;;;;;5.13;4.73;;;;;;;;;;5097389;28;20444;-74
2022/05/03 12:48:00;;;;;;;5.37;4.93;;;;;;;;;;5099303;28;20463;-76
2022/05/03 12:50:27;;;;;;;6.40;5.00;;;;;;;;;;5100857;28;20448;-75
2022/05/03 12:52:54;;;;;;;5.40;4.43;;;;;;;;;;5100719;28;20452;-74
2022/05/03 12:55:21;;;;;;;4.67;4.30;;;;;;;;;;5101121;28;20479;-75
2022/05/03 13:00:36;;;;;;;5.10;4.73;;;;;;;;;;5098097;28;20450;-76
2022/05/03 13:03:04;;;;;;;4.85;4.45;;;;;;;;;;5094509;28;20539;-75
2022/05/03 13:05:31;;;;;;;4.33;4.03;;;;;;;;;;5094809;28;20198;-76
2022/05/03 13:07:58;;;;;;;4.70;4.30;;;;;;;;;;5094250;28;20908;-75
2022/05/03 13:10:25;;;;;;;4.82;4.32;;;;;;;;;;5094807;28;20447;-75
2022/05/03 13:12:52;;;;;;;5.88;4.60;;;;;;;;;;5094794;28;20546;-74
2022/05/03 13:15:20;;;;;;;4.50;3.67;;;;;;;;;;5096001;28;20224;-75
2022/05/03 13:17:48;;;;;;;4.65;4.25;;;;;;;;;;5093746;28;20433;-76
2022/05/03 13:20:15;;;;;;;5.70;4.50;;;;;;;;;;5095696;28;20202;-75
2022/05/03 13:22:42;;;;;;;4.72;4.32;;;;;;;;;;5094641;28;20565;-75
2022/05/03 13:25:10;;;;;;;4.87;4.53;;;;;;;;;;5095823;28;20193;-76
2022/05/03 13:27:37;;;;;;;4.80;4.47;;;;;;;;;;5095401;28;20441;-76
2022/05/03 13:30:04;;;;;;;8.63;4.80;;;;;;;;;;5096635;28;20198;-75
2022/05/03 13:32:32;;;;;;;4.20;3.90;;;;;;;;;;5095451;28;20916;-74
2022/05/03 13:35:00;;;;;;;3.63;3.43;;;;;;;;;;5095559;28;20214;-75
2022/05/03 13:40:33;;;;;;;4.60;3.60;;;;;;;;;;5097924;28;20189;-74
2022/05/03 13:43:01;;;;;;;5.57;4.43;;;;;;;;;;5098447;28;20456;-75
2022/05/03 13:45:28;;;;;;;5.10;4.70;;;;;;;;;;5099098;28;20424;-76
2022/05/03 13:47:56;;;;;;;6.10;5.50;;;;;;;;;;5095567;28;20448;-75
2022/05/03 13:50:24;;;;;;;7.00;6.15;;;;;;;;;;5096158;28;20468;-75
2022/05/03 13:52:52;;;;;;;6.63;6.00;;;;;;;;;;5098310;28;20221;-75
2022/05/03 13:55:19;;;;;;;6.93;6.43;;;;;;;;;;5098743;28;21016;-75
2022/05/03 13:57:46;;;;;;;6.97;6.27;;;;;;;;;;5098867;28;20467;-76
2022/05/03 14:00:13;;;;;;;7.20;6.50;;;;;;;;;;5099110;28;20455;-76
2022/05/03 14:02:42;;;;;;;6.30;5.80;;;;;;;;;;5094529;28;20453;-77
2022/05/03 14:05:10;;;;;;;7.33;6.73;;;;;;;;;;5093077;28;20198;-77
2022/05/03 14:07:41;;;;;;;6.70;6.20;;;;;;;;;;5092236;28;20812;-75
2022/05/03 14:10:08;;;;;;;6.80;6.30;;;;;;;;;;5092111;28;20887;-75
2022/05/03 14:12:35;;;;;;;6.17;5.60;;;;;;;;;;5091700;28;20501;-75
2022/05/03 14:15:02;;;;;;;5.97;5.37;;;;;;;;;;5091694;28;20470;-76
2022/05/03 14:17:29;;;;;;;5.27;4.87;;;;;;;;;;5091827;28;20543;-77
2022/05/03 14:19:56;;;;;;;5.53;5.03;;;;;;;;;;5092215;28;20446;-76
2022/05/03 14:22:25;;;;;;;5.40;4.90;;;;;;;;;;5092353;28;20501;-77
2022/05/03 14:24:53;;;;;;;6.60;5.33;;;;;;;;;;5091975;28;20440;-76
2022/05/03 14:27:21;;;;;;;6.20;5.60;;;;;;;;;;5090924;28;20437;-77
2022/05/03 14:29:48;;;;;;;7.17;6.10;;;;;;;;;;5091229;28;20198;-76
2022/05/03 14:32:15;;;;;;;7.33;6.53;;;;;;;;;;5091994;28;20442;-76
2022/05/03 14:34:42;;;;;;;7.83;7.00;;;;;;;;;;5091745;28;20961;-75
2022/05/03 14:37:09;;;;;;;7.80;6.00;;;;;;;;;;5091515;28;20479;-76
2022/05/03 14:39:36;;;;;;;8.50;6.07;;;;;;;;;;5091653;28;20843;-76
2022/05/03 14:42:05;;;;;;;11.53;6.33;;;;;;;;;;5091908;28;20472;-76
2022/05/03 14:44:33;;;;;;;8.53;7.30;;;;;;;;;;5091446;28;20439;-76
2022/05/03 14:47:00;;;;;;;5.70;5.20;;;;;;;;;;5091455;28;20499;-76
2022/05/03 14:49:28;;;;;;;6.07;5.38;;;;;;;;;;5090688;28;20445;-76
2022/05/03 14:51:55;;;;;;;5.17;4.67;;;;;;;;;;5091339;28;20675;-75
2022/05/03 14:54:22;;;;;;;9.63;5.90;;;;;;;;;;5091157;28;20455;-75
2022/05/03 15:05:07;;;;;;;8.47;7.67;;;;;;;;;;5091566;28;20562;-76
2022/05/03 15:07:34;;;;;;;9.07;5.57;;;;;;;;;;5091451;28;20466;-76
2022/05/03 15:10:01;;;;;;;8.23;6.27;;;;;;;;;;5091427;28;20459;-75
2022/05/03 15:12:28;;;;;;;4.30;3.90;;;;;;;;;;5091265;28;20447;-76
2022/05/03 15:14:56;;;;;;;6.80;6.10;;;;;;;;;;5091507;28;20470;-77
2022/05/03 15:17:23;;;;;;;7.37;6.37;;;;;;;;;;5091906;28;20890;-76
2022/05/03 15:19:50;;;;;;;7.77;6.97;;;;;;;;;;5091028;28;20443;-76
2022/05/03 15:22:17;;;;;;;7.20;6.60;;;;;;;;;;5091167;28;20432;-76
2022/05/03 15:24:44;;;;;;;7.33;6.67;;;;;;;;;;5090980;28;20439;-76
2022/05/03 15:27:12;;;;;;;6.77;6.27;;;;;;;;;;5091176;28;20553;-76